createdAt,value
2023-02-11T00:00:23.524Z,39.30
2023-02-11T00:03:10.371Z,40.42
2023-02-11T00:05:37.545Z,39.08
2023-02-11T00:08:04.398Z,40.15
2023-02-11T00:10:31.497Z,39.15
2023-02-11T00:12:58.278Z,37.25
2023-02-11T00:15:25.332Z,41.40
2023-02-11T00:17:52.087Z,39.20
2023-02-11T00:20:19.309Z,37.63
2023-02-11T00:22:46.099Z,39.97
2023-02-11T00:25:13.144Z,37.78
2023-02-11T00:27:39.909Z,38.40
2023-02-11T00:30:07.541Z,35.13
2023-02-11T00:32:34.356Z,37.63
2023-02-11T00:35:01.461Z,35.88
2023-02-11T00:37:28.289Z,37.28
2023-02-11T00:39:55.353Z,35.88
2023-02-11T00:42:22.100Z,37.92
2023-02-11T00:44:49.144Z,36.83
2023-02-11T00:47:15.883Z,35.83
2023-02-11T00:49:42.953Z,34.15
2023-02-11T00:52:09.737Z,35.08
2023-02-11T00:54:36.777Z,34.85
2023-02-11T00:57:03.612Z,33.67
2023-02-11T00:59:30.670Z,35.05
2023-02-11T01:01:57.405Z,34.88
2023-02-11T01:04:24.546Z,34.35
2023-02-11T01:06:51.318Z,34.40
2023-02-11T01:09:18.477Z,34.03
2023-02-11T01:11:45.273Z,34.20
2023-02-11T01:14:12.382Z,34.17
2023-02-11T01:16:39.203Z,35.38
2023-02-11T01:19:06.336Z,35.50
2023-02-11T01:21:33.087Z,34.28
2023-02-11T01:24:00.141Z,34.55
2023-02-11T01:26:26.896Z,34.78
2023-02-11T01:28:54.042Z,33.60
2023-02-11T01:31:20.827Z,36.28
2023-02-11T01:33:49.197Z,36.35
2023-02-11T01:36:15.988Z,36.13
2023-02-11T01:38:44.486Z,38.65
2023-02-11T01:41:12.430Z,35.97
2023-02-11T01:43:41.766Z,35.92
2023-02-11T01:46:17.944Z,34.28
2023-02-11T01:48:47.883Z,35.42
2023-02-11T01:51:18.498Z,35.40
2023-02-11T01:54:04.250Z,35.28
2023-02-11T01:56:49.506Z,33.95
2023-02-11T01:59:24.791Z,35.40
2023-02-11T02:01:56.460Z,33.47
2023-02-11T02:04:23.580Z,33.05
2023-02-11T02:06:52.271Z,34.35
2023-02-11T02:09:24.004Z,34.00
2023-02-11T02:11:51.011Z,35.00
2023-02-11T02:14:18.151Z,33.65
2023-02-11T02:16:44.913Z,32.83
2023-02-11T02:19:46.221Z,34.50
2023-02-11T02:22:50.362Z,36.58
2023-02-11T02:25:27.148Z,35.30
2023-02-11T02:28:14.692Z,35.65
2023-02-11T02:31:09.694Z,34.25
2023-02-11T02:33:46.911Z,35.78
2023-02-11T02:36:39.319Z,34.85
2023-02-11T02:39:12.085Z,34.10
2023-02-11T02:41:39.130Z,34.40
2023-02-11T02:44:05.912Z,32.25
2023-02-11T02:46:33.714Z,34.28
2023-02-11T02:49:00.711Z,33.55
2023-02-11T02:51:27.711Z,34.78
2023-02-11T02:54:31.226Z,34.05
2023-02-11T02:57:22.477Z,32.42
2023-02-11T03:00:11.072Z,34.58
2023-02-11T03:02:50.237Z,33.83
2023-02-11T03:05:31.157Z,32.25
2023-02-11T03:07:58.249Z,31.88
2023-02-11T03:10:27.491Z,32.88
2023-02-11T03:12:54.593Z,32.70
2023-02-11T03:15:21.360Z,33.22
2023-02-11T03:17:49.675Z,34.00
2023-02-11T03:20:17.575Z,31.23
2023-02-11T03:23:07.399Z,30.38
2023-02-11T03:26:05.181Z,32.28
2023-02-11T03:28:35.706Z,31.77
2023-02-11T03:31:20.636Z,30.85
2023-02-11T03:34:16.784Z,30.55
2023-02-11T03:36:55.999Z,33.45
2023-02-11T03:39:29.822Z,31.38
2023-02-11T03:41:56.639Z,31.10
2023-02-11T03:44:23.704Z,30.88
2023-02-11T03:46:50.944Z,33.13
2023-02-11T03:49:20.273Z,32.22
2023-02-11T03:51:47.631Z,31.08
2023-02-11T03:54:16.131Z,30.85
2023-02-11T03:56:49.133Z,30.58
2023-02-11T03:59:16.171Z,32.95
2023-02-11T04:01:42.975Z,30.15
2023-02-11T04:04:10.101Z,30.77
2023-02-11T04:06:36.886Z,29.70
2023-02-11T04:09:04.112Z,29.50
2023-02-11T04:11:30.850Z,30.15
2023-02-11T04:13:57.883Z,30.83
2023-02-11T04:16:24.717Z,29.98
2023-02-11T04:18:51.815Z,30.98
2023-02-11T04:21:18.880Z,30.83
2023-02-11T04:23:45.933Z,31.02
2023-02-11T04:26:12.661Z,31.45
2023-02-11T04:28:39.737Z,30.13
2023-02-11T04:31:06.630Z,30.98
2023-02-11T04:33:33.831Z,30.42
2023-02-11T04:36:00.610Z,29.80
2023-02-11T04:38:27.714Z,29.35
2023-02-11T04:40:54.487Z,30.50
2023-02-11T04:43:21.502Z,30.50
2023-02-11T04:45:48.682Z,31.42
2023-02-11T04:48:15.966Z,31.20
2023-02-11T04:50:42.692Z,31.20
2023-02-11T04:53:09.755Z,30.35
2023-02-11T04:55:36.493Z,30.30
2023-02-11T04:58:03.598Z,29.88
2023-02-11T05:00:30.317Z,29.42
2023-02-11T05:02:57.390Z,30.13
2023-02-11T05:05:24.254Z,29.60
2023-02-11T05:07:51.704Z,29.23
2023-02-11T05:10:18.504Z,28.60
2023-02-11T05:12:47.655Z,29.42
2023-02-11T05:15:14.423Z,28.02
2023-02-11T05:17:41.460Z,28.95
2023-02-11T05:20:08.779Z,28.52
2023-02-11T05:22:35.892Z,27.00
2023-02-11T05:25:02.626Z,29.02
2023-02-11T05:27:29.687Z,27.52
2023-02-11T05:29:56.500Z,29.23
2023-02-11T05:32:23.549Z,27.67
2023-02-11T05:34:50.397Z,28.95
2023-02-11T05:37:17.492Z,28.20
2023-02-11T05:39:44.306Z,26.80
2023-02-11T05:42:11.343Z,27.95
2023-02-11T05:44:38.268Z,27.50
2023-02-11T05:47:05.377Z,27.75
2023-02-11T05:49:32.118Z,27.65
2023-02-11T05:51:59.178Z,28.25
2023-02-11T05:54:25.887Z,26.70
2023-02-11T05:56:52.974Z,27.35
2023-02-11T05:59:19.734Z,27.35
2023-02-11T06:01:46.842Z,25.92
2023-02-11T06:04:13.587Z,26.92
2023-02-11T06:06:40.657Z,26.75
2023-02-11T06:09:07.422Z,25.98
2023-02-11T06:11:34.517Z,26.90
2023-02-11T06:14:01.461Z,27.38
2023-02-11T06:16:28.628Z,27.42
2023-02-11T06:18:55.406Z,26.17
2023-02-11T06:21:23.887Z,26.98
2023-02-11T06:23:51.819Z,26.10
2023-02-11T06:26:21.523Z,25.02
2023-02-11T06:28:48.350Z,25.55
2023-02-11T06:31:15.751Z,25.92
2023-02-11T06:33:42.590Z,27.35
2023-02-11T06:36:15.213Z,26.58
2023-02-11T06:38:42.034Z,26.75
2023-02-11T06:41:11.099Z,26.67
2023-02-11T06:43:37.879Z,26.33
2023-02-11T06:46:05.116Z,26.98
2023-02-11T06:48:31.882Z,26.92
2023-02-11T06:51:05.166Z,25.13
2023-02-11T06:53:32.558Z,26.80
2023-02-11T06:56:06.590Z,28.05
2023-02-11T06:58:33.616Z,27.42
2023-02-11T07:01:02.258Z,27.30
2023-02-11T07:03:29.051Z,25.85
2023-02-11T07:05:56.169Z,25.13
2023-02-11T07:08:22.928Z,28.38
2023-02-11T07:10:49.988Z,26.95
2023-02-11T07:13:16.757Z,27.55
2023-02-11T07:15:43.995Z,27.23
2023-02-11T07:18:13.005Z,25.70
2023-02-11T07:20:41.380Z,27.80
2023-02-11T07:23:08.104Z,27.10
2023-02-11T07:25:35.493Z,28.42
2023-02-11T07:28:03.379Z,27.08
2023-02-11T07:30:30.504Z,26.92
2023-02-11T07:32:57.292Z,28.65
2023-02-11T07:35:24.376Z,29.58
2023-02-11T07:37:51.116Z,28.27
2023-02-11T07:40:18.318Z,29.90
2023-02-11T07:42:45.054Z,28.17
2023-02-11T07:45:13.836Z,29.55
2023-02-11T07:47:42.736Z,29.40
2023-02-11T07:50:10.203Z,30.05
2023-02-11T07:52:36.978Z,31.63
2023-02-11T07:55:04.992Z,30.25
2023-02-11T07:57:32.365Z,29.15
2023-02-11T07:59:59.481Z,29.30
2023-02-11T08:02:26.298Z,32.13
2023-02-11T08:04:53.423Z,31.23
2023-02-11T08:07:20.246Z,29.05
2023-02-11T08:09:47.489Z,30.45
2023-02-11T08:12:14.279Z,31.13
2023-02-11T08:14:41.297Z,31.55
2023-02-11T08:17:08.022Z,31.30
2023-02-11T08:19:35.438Z,32.65
2023-02-11T08:22:02.316Z,33.47
2023-02-11T08:24:29.373Z,34.03
2023-02-11T08:26:56.407Z,34.05
2023-02-11T08:29:23.458Z,34.30
2023-02-11T08:31:50.465Z,35.22
2023-02-11T08:34:20.555Z,33.30
2023-02-11T08:36:47.567Z,33.00
2023-02-11T08:39:19.723Z,33.40
2023-02-11T08:41:49.609Z,35.17
2023-02-11T08:44:17.962Z,34.22
2023-02-11T08:46:44.804Z,34.92
2023-02-11T08:49:11.929Z,34.53
2023-02-11T08:51:38.747Z,34.50
2023-02-11T08:54:09.499Z,35.20
2023-02-11T08:56:37.295Z,35.13
2023-02-11T08:59:04.726Z,34.15
2023-02-11T09:01:31.814Z,34.28
2023-02-11T09:03:59.137Z,33.22
2023-02-11T09:06:26.713Z,33.72
2023-02-11T09:08:54.903Z,35.70
2023-02-11T09:11:24.948Z,33.90
2023-02-11T09:13:54.307Z,32.42
2023-02-11T09:16:23.070Z,35.38
2023-02-11T09:18:50.499Z,33.67
2023-02-11T09:21:17.466Z,33.17
2023-02-11T09:23:44.943Z,32.30
2023-02-11T09:26:17.353Z,33.58
2023-02-11T09:28:44.499Z,32.35
2023-02-11T09:31:13.681Z,34.28
2023-02-11T09:33:47.950Z,31.23
2023-02-11T09:36:31.516Z,31.65
2023-02-11T09:38:59.888Z,31.45
2023-02-11T09:41:42.295Z,32.78
2023-02-11T09:44:17.629Z,32.42
2023-02-11T09:46:45.473Z,32.13
2023-02-11T09:49:18.194Z,29.88
2023-02-11T09:52:02.580Z,32.42
2023-02-11T09:55:03.140Z,31.40
2023-02-11T09:57:35.167Z,32.83
2023-02-11T10:00:08.144Z,36.55
2023-02-11T10:03:12.689Z,34.95
2023-02-11T10:05:54.791Z,33.30
2023-02-11T10:08:33.391Z,30.98
2023-02-11T10:11:04.711Z,34.42
2023-02-11T10:13:44.032Z,32.70
2023-02-11T10:16:26.376Z,32.03
2023-02-11T10:19:22.369Z,32.75
2023-02-11T10:21:52.862Z,33.55
2023-02-11T10:24:19.597Z,32.05
2023-02-11T10:26:46.713Z,32.28
2023-02-11T10:29:42.220Z,32.40
2023-02-11T10:32:38.754Z,32.67
2023-02-11T10:35:15.192Z,29.85
2023-02-11T10:37:44.470Z,32.92
2023-02-11T10:40:19.267Z,31.08
2023-02-11T10:42:48.905Z,30.77
2023-02-11T10:45:46.756Z,30.98
2023-02-11T10:48:35.634Z,29.40
2023-02-11T10:51:25.247Z,29.52
2023-02-11T10:54:04.662Z,30.77
2023-02-11T10:56:32.977Z,30.83
2023-02-11T10:59:14.587Z,33.28
2023-02-11T11:01:45.311Z,35.35
2023-02-11T11:04:31.097Z,34.75
2023-02-11T11:07:09.791Z,35.40
2023-02-11T11:09:49.305Z,34.15
2023-02-11T11:12:30.756Z,33.78
2023-02-11T11:14:59.876Z,34.08
2023-02-11T11:17:29.197Z,33.15
2023-02-11T11:20:16.973Z,31.20
2023-02-11T11:22:43.911Z,32.38
2023-02-11T11:25:24.912Z,33.67
2023-02-11T11:27:52.702Z,33.83
2023-02-11T11:30:19.967Z,31.30
2023-02-11T11:32:46.807Z,29.80
2023-02-11T11:35:30.426Z,31.33
2023-02-11T11:38:01.759Z,32.50
2023-02-11T11:40:30.779Z,31.10
2023-02-11T11:43:04.902Z,31.35
2023-02-11T11:45:32.078Z,31.63
2023-02-11T11:48:01.336Z,31.00
2023-02-11T11:50:40.488Z,29.77
2023-02-11T11:53:31.575Z,30.88
2023-02-11T11:56:05.538Z,29.65
2023-02-11T11:58:32.912Z,30.70
2023-02-11T12:01:03.006Z,30.77
2023-02-11T12:03:45.006Z,28.30
2023-02-11T12:06:21.357Z,28.58
2023-02-11T12:09:05.101Z,31.38
2023-02-11T12:12:09.914Z,30.10
2023-02-11T12:14:58.560Z,30.20
2023-02-11T12:17:47.375Z,31.67
2023-02-11T12:20:32.024Z,31.30
2023-02-11T12:23:14.599Z,32.05
2023-02-11T12:25:51.713Z,30.55
2023-02-11T12:28:55.944Z,29.98
2023-02-11T12:31:44.213Z,31.27
2023-02-11T12:34:46.915Z,33.80
2023-02-11T12:37:31.796Z,32.65
2023-02-11T12:40:21.864Z,33.13
2023-02-11T12:43:17.425Z,32.28
2023-02-11T12:45:49.568Z,31.65
2023-02-11T12:48:39.705Z,30.25
2023-02-11T12:51:25.599Z,31.00
2023-02-11T12:53:52.327Z,30.23
2023-02-11T12:56:52.963Z,30.08
2023-02-11T12:59:29.298Z,30.35
2023-02-11T13:01:56.511Z,30.05
2023-02-11T13:04:43.381Z,27.33
2023-02-11T13:07:23.633Z,28.42
2023-02-11T13:09:58.498Z,28.55
2023-02-11T13:12:44.250Z,27.17
2023-02-11T13:15:14.134Z,29.25
2023-02-11T13:17:55.533Z,29.00
2023-02-11T13:20:33.643Z,31.45
2023-02-11T13:23:25.980Z,29.02
2023-02-11T13:26:00.285Z,31.10
2023-02-11T13:28:40.313Z,28.85
2023-02-11T13:31:07.812Z,29.90
2023-02-11T13:33:45.908Z,29.80
2023-02-11T13:36:14.673Z,28.13
2023-02-11T13:38:41.863Z,29.60
2023-02-11T13:41:40.997Z,28.60
2023-02-11T13:44:11.201Z,29.02
2023-02-11T13:46:58.282Z,27.90
2023-02-11T13:49:32.679Z,28.17
2023-02-11T13:52:00.104Z,29.48
2023-02-11T13:54:47.908Z,31.13
2023-02-11T13:57:20.932Z,29.67
2023-02-11T13:59:51.840Z,29.33
2023-02-11T14:02:41.320Z,31.67
2023-02-11T14:05:27.029Z,27.83
2023-02-11T14:08:30.588Z,29.42
2023-02-11T14:10:58.304Z,26.85
2023-02-11T14:13:51.520Z,29.48
2023-02-11T14:16:36.363Z,29.40
2023-02-11T14:19:04.515Z,28.85
2023-02-11T14:21:36.270Z,30.90
2023-02-11T14:24:04.948Z,30.35
2023-02-11T14:26:58.413Z,28.92
2023-02-11T14:29:44.037Z,29.67
2023-02-11T14:32:30.373Z,30.25
2023-02-11T14:35:05.875Z,29.92
2023-02-11T14:37:57.388Z,26.98
2023-02-11T14:40:30.192Z,28.83
2023-02-11T14:42:57.423Z,28.00
2023-02-11T14:45:27.377Z,28.85
2023-02-11T14:48:15.537Z,30.75
2023-02-11T14:50:53.469Z,28.70
2023-02-11T14:53:22.763Z,28.23
2023-02-11T14:55:52.465Z,28.13
2023-02-11T14:58:24.302Z,28.00
2023-02-11T15:01:01.146Z,26.88
2023-02-11T15:03:39.506Z,27.60
2023-02-11T15:06:20.648Z,26.80
2023-02-11T15:09:29.992Z,27.83
2023-02-11T15:11:56.826Z,26.40
2023-02-11T15:14:29.514Z,26.55
2023-02-11T15:17:04.032Z,25.90
2023-02-11T15:19:34.666Z,26.13
2023-02-11T15:22:04.759Z,26.85
2023-02-11T15:24:39.394Z,26.73
2023-02-11T15:27:12.791Z,28.23
2023-02-11T15:29:42.735Z,27.63
2023-02-11T15:32:09.640Z,27.42
2023-02-11T15:34:37.256Z,27.55
2023-02-11T15:37:04.502Z,26.98
2023-02-11T15:39:41.036Z,28.92
2023-02-11T15:42:21.236Z,27.60
2023-02-11T15:44:56.407Z,28.23
2023-02-11T15:47:29.330Z,29.60
2023-02-11T15:49:56.500Z,30.25
2023-02-11T15:52:24.987Z,30.25
2023-02-11T15:54:52.543Z,31.10
2023-02-11T15:57:19.382Z,31.80
2023-02-11T15:59:48.476Z,31.77
2023-02-11T16:02:16.956Z,32.55
2023-02-11T16:05:27.235Z,33.75
2023-02-11T16:07:54.102Z,35.58
2023-02-11T16:10:28.319Z,34.95
2023-02-11T16:13:07.250Z,36.05
2023-02-11T16:15:34.363Z,36.78
2023-02-11T16:18:02.162Z,37.88
2023-02-11T16:20:29.273Z,35.58
2023-02-11T16:22:56.066Z,36.75
2023-02-11T16:25:23.247Z,38.85
2023-02-11T16:27:52.085Z,41.13
2023-02-11T16:30:26.408Z,42.10
2023-02-11T16:32:54.131Z,42.83
2023-02-11T16:35:21.173Z,44.47
2023-02-11T16:37:48.031Z,44.13
2023-02-11T16:40:15.314Z,46.13
2023-02-11T16:42:42.132Z,46.47
2023-02-11T16:45:09.721Z,48.58
2023-02-11T16:47:40.936Z,46.17
2023-02-11T16:50:12.421Z,45.38
2023-02-11T16:52:39.195Z,44.63
2023-02-11T16:55:06.459Z,48.83
2023-02-11T16:57:33.309Z,47.58
2023-02-11T17:00:00.442Z,46.03
2023-02-11T17:02:31.911Z,49.72
2023-02-11T17:05:00.843Z,46.47
2023-02-11T17:07:27.862Z,46.40
2023-02-11T17:09:54.945Z,47.55
2023-02-11T17:12:21.871Z,48.80
2023-02-11T17:14:48.933Z,48.70
2023-02-11T17:17:16.020Z,46.33
2023-02-11T17:19:43.174Z,49.97
2023-02-11T17:22:10.792Z,46.80
2023-02-11T17:24:38.004Z,47.40
2023-02-11T17:27:04.853Z,46.28
2023-02-11T17:29:31.954Z,47.63
2023-02-11T17:31:58.756Z,46.38
2023-02-11T17:34:25.877Z,47.15
2023-02-11T17:36:52.730Z,45.58
2023-02-11T17:39:21.079Z,48.33
2023-02-11T17:41:48.078Z,47.03
2023-02-11T17:44:16.517Z,46.40
2023-02-11T17:46:43.616Z,45.25
2023-02-11T17:49:11.722Z,44.25
2023-02-11T17:51:39.289Z,46.05
2023-02-11T17:54:17.268Z,44.00
2023-02-11T17:56:44.251Z,45.85
2023-02-11T17:59:12.073Z,45.80
2023-02-11T18:01:39.479Z,48.00
2023-02-11T18:04:06.918Z,45.70
2023-02-11T18:06:33.964Z,44.90
2023-02-11T18:09:04.506Z,44.05
2023-02-11T18:11:32.594Z,45.22
2023-02-11T18:14:00.272Z,44.97
2023-02-11T18:16:28.951Z,46.53
2023-02-11T18:18:57.055Z,46.45
2023-02-11T18:21:24.031Z,44.45
2023-02-11T18:23:51.205Z,45.38
2023-02-11T18:26:19.192Z,44.58
2023-02-11T18:28:46.335Z,44.78
2023-02-11T18:31:13.950Z,44.42
2023-02-11T18:33:41.431Z,42.70
2023-02-11T18:36:09.762Z,43.35
2023-02-11T18:38:36.965Z,43.78
2023-02-11T18:41:03.878Z,42.38
2023-02-11T18:43:33.587Z,42.58
2023-02-11T18:46:01.354Z,41.30
2023-02-11T18:48:28.571Z,40.05
2023-02-11T18:50:55.576Z,42.70
2023-02-11T18:53:22.754Z,43.47
2023-02-11T18:55:49.584Z,41.60
2023-02-11T18:58:16.858Z,42.75
2023-02-11T19:00:45.976Z,42.08
2023-02-11T19:03:13.089Z,42.58
2023-02-11T19:05:43.306Z,42.15
2023-02-11T19:08:10.818Z,43.53
2023-02-11T19:10:45.114Z,44.55
2023-02-11T19:13:12.429Z,43.08
2023-02-11T19:15:43.166Z,42.50
2023-02-11T19:18:10.850Z,43.63
2023-02-11T19:20:42.085Z,43.00
2023-02-11T19:23:09.302Z,42.72
2023-02-11T19:25:36.138Z,43.25
2023-02-11T19:28:03.580Z,41.05
2023-02-11T19:30:30.707Z,42.55
2023-02-11T19:32:57.988Z,43.90
2023-02-11T19:35:25.056Z,43.53
2023-02-11T19:37:52.253Z,41.55
2023-02-11T19:40:21.199Z,41.72
2023-02-11T19:42:48.312Z,45.03
2023-02-11T19:45:15.207Z,45.92
2023-02-11T19:47:42.307Z,48.53
2023-02-11T19:50:09.415Z,49.70
2023-02-11T19:52:40.526Z,54.22
2023-02-11T19:55:08.127Z,53.90
2023-02-11T19:57:36.484Z,55.85
2023-02-11T20:00:03.840Z,56.60
2023-02-11T20:02:31.303Z,56.47
2023-02-11T20:04:58.156Z,56.22
2023-02-11T20:07:25.308Z,54.90
2023-02-11T20:09:53.750Z,52.35
2023-02-11T20:12:20.858Z,50.67
2023-02-11T20:14:47.630Z,48.70
2023-02-11T20:17:14.785Z,48.05
2023-02-11T20:19:41.583Z,43.67
2023-02-11T20:22:09.158Z,41.60
2023-02-11T20:24:36.104Z,38.08
2023-02-11T20:27:03.198Z,36.22
2023-02-11T20:29:31.804Z,35.60
2023-02-11T20:31:59.091Z,34.60
2023-02-11T20:34:25.977Z,35.33
2023-02-11T20:36:53.513Z,32.00
2023-02-11T20:39:22.375Z,30.42
2023-02-11T20:41:49.852Z,30.65
2023-02-11T20:44:16.621Z,28.05
2023-02-11T20:46:48.027Z,28.15
2023-02-11T20:49:16.589Z,27.77
2023-02-11T20:51:43.841Z,25.67
2023-02-11T20:54:14.620Z,25.88
2023-02-11T20:56:41.842Z,25.38
2023-02-11T20:59:08.817Z,23.83
2023-02-11T21:01:37.815Z,22.48
2023-02-11T21:04:06.533Z,22.42
2023-02-11T21:06:38.459Z,21.85
2023-02-11T21:09:06.018Z,21.27
2023-02-11T21:11:33.226Z,22.17
2023-02-11T21:14:01.917Z,20.92
2023-02-11T21:16:29.115Z,20.23
2023-02-11T21:18:56.075Z,18.70
2023-02-11T21:21:23.628Z,18.70
2023-02-11T21:23:50.402Z,17.90
2023-02-11T21:26:17.960Z,17.98
2023-02-11T21:28:44.798Z,19.05
2023-02-11T21:31:23.736Z,17.88
2023-02-11T21:33:50.717Z,16.05
2023-02-11T21:36:17.898Z,16.30
2023-02-11T21:38:44.856Z,17.73
2023-02-11T21:41:12.025Z,16.00
2023-02-11T21:43:38.931Z,15.73
2023-02-11T21:46:10.546Z,14.13
2023-02-11T21:48:37.541Z,15.18
2023-02-11T21:51:06.365Z,14.85
2023-02-11T21:53:33.446Z,14.98
2023-02-11T21:56:08.556Z,14.80
2023-02-11T21:58:35.848Z,14.93
2023-02-11T22:01:10.611Z,14.98
2023-02-11T22:03:37.499Z,14.60
2023-02-11T22:06:12.230Z,14.73
2023-02-11T22:08:39.296Z,13.90
2023-02-11T22:11:07.661Z,14.15
2023-02-11T22:13:34.505Z,13.50
2023-02-11T22:16:02.742Z,12.57
2023-02-11T22:18:30.396Z,12.73
2023-02-11T22:21:06.154Z,13.18
2023-02-11T22:23:33.059Z,11.40
2023-02-11T22:26:03.825Z,13.38
2023-02-11T22:28:30.675Z,12.30
2023-02-11T22:30:58.110Z,12.30
2023-02-11T22:33:25.646Z,11.73
2023-02-11T22:36:04.072Z,12.00
2023-02-11T22:38:31.694Z,12.23
2023-02-11T22:40:59.398Z,11.82
2023-02-11T22:43:27.460Z,11.52
2023-02-11T22:45:56.628Z,11.15
2023-02-11T22:48:23.645Z,12.07
2023-02-11T22:50:50.751Z,11.98
2023-02-11T22:53:17.512Z,11.95
2023-02-11T22:55:44.706Z,11.43
2023-02-11T22:58:11.638Z,11.50
2023-02-11T23:00:40.362Z,11.77
2023-02-11T23:03:20.230Z,10.65
2023-02-11T23:05:54.560Z,11.98
2023-02-11T23:08:21.635Z,10.35
2023-02-11T23:10:49.455Z,10.48
2023-02-11T23:13:16.263Z,11.07
2023-02-11T23:15:44.219Z,10.93
2023-02-11T23:18:11.415Z,10.65
2023-02-11T23:20:39.780Z,10.93
2023-02-11T23:23:06.605Z,11.32
2023-02-11T23:25:33.735Z,10.60
2023-02-11T23:28:01.157Z,11.25
2023-02-11T23:30:28.423Z,12.35
2023-02-11T23:32:55.396Z,10.77
2023-02-11T23:35:23.217Z,10.50
2023-02-11T23:37:50.395Z,10.93
2023-02-11T23:40:18.187Z,10.38
2023-02-11T23:42:45.756Z,9.98
2023-02-11T23:45:13.057Z,10.50
2023-02-11T23:47:41.050Z,10.05
2023-02-11T23:50:09.355Z,11.27
2023-02-11T23:52:36.136Z,10.02
2023-02-11T23:55:03.395Z,10.75
2023-02-11T23:57:32.572Z,10.27
2023-02-11T23:59:59.672Z,10.57
